Time;durP1;ratioP1;P1;durP2;ratioP2;P2;SDS_P1;SDS_P2;PMS_P1;PMS_P2;Temp;Humidity;BMP_temperature;BMP_pressure;BME280_temperature;BME280_humidity;BME280_pressure;Samples;Min_cycle;Max_cycle;Signal;HPM_P1;HPM_P2
2024/04/03 00:01:43;;;;;;;;;1.00;1.00;;;;;;;;5011093;28;9532;-83
2024/04/03 00:04:10;;;;;;;;;2.00;2.00;;;;;;;;4994865;28;9036;-83
2024/04/03 00:06:37;;;;;;;;;4.00;2.00;;;;;;;;5012021;28;8968;-83
2024/04/03 00:09:03;;;;;;;;;3.67;2.00;;;;;;;;5011939;28;9155;-83
2024/04/03 00:11:31;;;;;;;;;1.67;1.67;;;;;;;;5006701;28;8999;-83
2024/04/03 00:13:57;;;;;;;;;3.00;1.00;;;;;;;;5011072;28;9034;-83
2024/04/03 00:16:26;;;;;;;;;3.00;1.67;;;;;;;;5012930;28;9094;-82
2024/04/03 00:18:53;;;;;;;;;2.00;2.00;;;;;;;;4996809;28;9099;-82
2024/04/03 00:21:20;;;;;;;;;3.00;2.00;;;;;;;;5009225;28;9025;-83
2024/04/03 00:23:46;;;;;;;;;3.25;3.25;;;;;;;;5011268;28;9024;-82
2024/04/03 00:26:16;;;;;;;;;2.00;2.00;;;;;;;;4999607;28;8993;-82
2024/04/03 00:28:42;;;;;;;;;2.00;2.00;;;;;;;;5013955;28;8974;-83
2024/04/03 00:31:10;;;;;;;;;0.00;0.00;;;;;;;;5001486;28;8879;-82
2024/04/03 00:33:38;;;;;;;;;2.00;2.00;;;;;;;;5008390;28;8975;-83
2024/04/03 00:36:06;;;;;;;;;1.25;1.25;;;;;;;;5002797;28;9075;-83
2024/04/03 00:38:32;;;;;;;;;4.00;2.00;;;;;;;;5010599;28;9661;-83
2024/04/03 00:41:00;;;;;;;;;1.67;1.67;;;;;;;;5010840;28;9030;-82
2024/04/03 00:43:27;;;;;;;;;2.00;2.00;;;;;;;;5007703;28;9710;-83
2024/04/03 00:45:55;;;;;;;;;1.00;1.00;;;;;;;;5004204;28;8943;-83
2024/04/03 00:48:22;;;;;;;;;1.00;1.00;;;;;;;;5008002;28;9048;-83
2024/04/03 00:50:53;;;;;;;;;1.67;1.67;;;;;;;;5009000;28;9055;-82
2024/04/03 00:53:19;;;;;;;;;1.00;1.00;;;;;;;;5007311;28;9093;-82
2024/04/03 00:55:47;;;;;;;;;1.00;1.00;;;;;;;;5010530;28;9805;-82
2024/04/03 00:58:16;;;;;;;;;1.00;1.00;;;;;;;;4998322;28;8981;-82
2024/04/03 01:00:45;;;;;;;;;1.00;1.00;;;;;;;;4992033;28;9022;-82
2024/04/03 01:03:11;;;;;;;;;0.67;0.67;;;;;;;;5004954;28;9115;-82
2024/04/03 01:05:39;;;;;;;;;1.00;1.00;;;;;;;;5001205;28;9027;-82
2024/04/03 01:08:06;;;;;;;;;2.00;2.00;;;;;;;;5000590;28;9103;-82
2024/04/03 01:10:34;;;;;;;;;0.33;0.33;;;;;;;;5005626;28;9181;-82
2024/04/03 01:13:01;;;;;;;;;1.00;1.00;;;;;;;;5012324;28;9172;-82
2024/04/03 01:15:29;;;;;;;;;3.00;1.00;;;;;;;;5001600;28;9206;-82
2024/04/03 01:17:55;;;;;;;;;2.33;1.00;;;;;;;;5001057;28;9236;-83
2024/04/03 01:20:23;;;;;;;;;2.00;1.00;;;;;;;;4996256;28;9279;-82
2024/04/03 01:22:50;;;;;;;;;2.00;1.00;;;;;;;;4991583;28;9215;-83
2024/04/03 01:25:19;;;;;;;;;0.00;0.00;;;;;;;;5004088;28;9220;-82
2024/04/03 01:27:45;;;;;;;;;0.00;0.00;;;;;;;;4997654;28;9188;-82
2024/04/03 01:30:12;;;;;;;;;2.00;0.00;;;;;;;;4997620;28;9208;-83
2024/04/03 01:32:41;;;;;;;;;0.00;0.00;;;;;;;;5003772;28;9327;-82
2024/04/03 01:35:08;;;;;;;;;0.00;0.00;;;;;;;;5003689;28;9110;-82
2024/04/03 01:37:34;;;;;;;;;0.33;0.00;;;;;;;;5003577;28;9025;-82
2024/04/03 01:40:02;;;;;;;;;0.67;0.67;;;;;;;;5003641;28;9272;-82
2024/04/03 01:42:30;;;;;;;;;1.67;0.00;;;;;;;;5008796;28;9248;-83
2024/04/03 01:44:57;;;;;;;;;0.00;0.00;;;;;;;;4998766;28;9795;-83
2024/04/03 01:47:24;;;;;;;;;0.00;0.00;;;;;;;;4997437;28;9037;-82
2024/04/03 01:49:54;;;;;;;;;2.00;2.00;;;;;;;;5004940;28;9911;-83
2024/04/03 01:52:21;;;;;;;;;1.00;1.00;;;;;;;;4994192;28;9117;-83
2024/04/03 01:54:48;;;;;;;;;1.00;1.00;;;;;;;;5001771;28;9106;-83
2024/04/03 01:57:15;;;;;;;;;1.00;1.00;;;;;;;;5004108;28;9102;-82
2024/04/03 01:59:44;;;;;;;;;0.33;0.33;;;;;;;;5011526;28;9102;-83
2024/04/03 02:02:10;;;;;;;;;1.00;1.00;;;;;;;;5009676;28;9134;-83
2024/04/03 02:04:37;;;;;;;;;0.67;0.67;;;;;;;;5000592;28;9222;-83
2024/04/03 02:07:03;;;;;;;;;2.00;2.00;;;;;;;;5004584;28;9202;-83
2024/04/03 02:09:31;;;;;;;;;0.00;0.00;;;;;;;;4991616;28;9187;-83
2024/04/03 02:11:57;;;;;;;;;0.00;0.00;;;;;;;;4992330;28;9098;-83
2024/04/03 02:14:24;;;;;;;;;1.00;1.00;;;;;;;;4991450;28;9307;-83
2024/04/03 02:16:52;;;;;;;;;0.00;0.00;;;;;;;;5006848;28;9273;-83
2024/04/03 02:19:19;;;;;;;;;1.00;1.00;;;;;;;;5008965;28;9500;-83
2024/04/03 02:21:45;;;;;;;;;1.00;1.00;;;;;;;;5007547;28;9328;-83
2024/04/03 02:24:13;;;;;;;;;2.00;1.00;;;;;;;;4989314;28;9365;-83
2024/04/03 02:26:42;;;;;;;;;0.67;0.67;;;;;;;;5002639;28;9182;-82
2024/04/03 02:29:09;;;;;;;;;0.00;0.00;;;;;;;;4999968;28;9179;-83
2024/04/03 02:31:36;;;;;;;;;0.33;0.33;;;;;;;;4996224;28;9234;-83
2024/04/03 02:34:04;;;;;;;;;0.00;0.00;;;;;;;;5008348;28;9393;-82
2024/04/03 02:36:30;;;;;;;;;1.00;1.00;;;;;;;;5010089;28;9233;-83
2024/04/03 02:39:00;;;;;;;;;1.00;1.00;;;;;;;;5011666;28;9196;-83
2024/04/03 02:41:26;;;;;;;;;0.67;0.67;;;;;;;;4998712;28;9518;-83
2024/04/03 02:43:53;;;;;;;;;2.67;1.00;;;;;;;;5009405;28;9193;-83
2024/04/03 02:46:20;;;;;;;;;1.00;1.00;;;;;;;;4996943;28;9248;-82
2024/04/03 02:48:47;;;;;;;;;1.00;1.00;;;;;;;;5009268;28;9201;-83
2024/04/03 02:51:16;;;;;;;;;1.00;1.00;;;;;;;;4993191;28;9400;-83
2024/04/03 02:53:44;;;;;;;;;1.00;1.00;;;;;;;;5001488;28;9419;-83
2024/04/03 02:56:10;;;;;;;;;1.00;1.00;;;;;;;;5010008;28;9182;-83
2024/04/03 02:58:37;;;;;;;;;1.00;1.00;;;;;;;;5010274;28;9364;-83
2024/04/03 03:01:06;;;;;;;;;4.00;1.00;;;;;;;;5003805;28;9373;-82
2024/04/03 03:03:34;;;;;;;;;1.00;1.00;;;;;;;;4990467;28;9411;-83
2024/04/03 03:06:01;;;;;;;;;1.67;0.67;;;;;;;;5002094;28;9337;-82
2024/04/03 03:08:31;;;;;;;;;2.67;1.00;;;;;;;;4997980;28;9363;-81
2024/04/03 03:10:58;;;;;;;;;0.67;0.67;;;;;;;;5008536;28;9275;-83
2024/04/03 03:13:27;;;;;;;;;0.33;0.33;;;;;;;;5007337;28;9284;-83
2024/04/03 03:15:54;;;;;;;;;1.00;1.00;;;;;;;;5000112;28;9289;-82
2024/04/03 03:18:22;;;;;;;;;1.67;1.00;;;;;;;;5012182;28;10096;-82
2024/04/03 03:20:48;;;;;;;;;0.67;0.67;;;;;;;;5005247;28;9418;-83
2024/04/03 03:23:16;;;;;;;;;1.00;1.00;;;;;;;;5006299;28;9326;-83
2024/04/03 03:25:44;;;;;;;;;2.33;1.00;;;;;;;;5001601;28;9197;-83
2024/04/03 03:28:12;;;;;;;;;1.33;1.33;;;;;;;;5012301;28;9345;-83
2024/04/03 03:30:38;;;;;;;;;1.00;1.00;;;;;;;;5003841;28;9353;-83
2024/04/03 03:33:06;;;;;;;;;1.00;1.00;;;;;;;;5006859;28;9342;-83
2024/04/03 03:35:32;;;;;;;;;1.00;1.00;;;;;;;;5003483;28;9186;-83
2024/04/03 03:37:59;;;;;;;;;2.00;1.00;;;;;;;;5012782;28;9331;-83
2024/04/03 03:40:28;;;;;;;;;1.00;1.00;;;;;;;;5005117;28;9345;-83
2024/04/03 03:42:56;;;;;;;;;2.00;2.00;;;;;;;;5003062;28;9413;-83
2024/04/03 03:45:23;;;;;;;;;1.75;1.75;;;;;;;;5006027;28;9407;-82
2024/04/03 03:47:50;;;;;;;;;2.00;2.00;;;;;;;;5008240;28;9514;-83
2024/04/03 03:53:02;;;;;;;;;1.00;1.00;;;;;;;;4996754;28;9262;-83
2024/04/03 03:55:29;;;;;;;;;1.00;1.00;;;;;;;;5000098;28;9537;-83
2024/04/03 03:58:00;;;;;;;;;2.00;2.00;;;;;;;;4995999;28;9426;-82
2024/04/03 04:00:27;;;;;;;;;1.00;1.00;;;;;;;;5008735;28;9262;-82
2024/04/03 04:02:55;;;;;;;;;1.00;1.00;;;;;;;;5006616;28;9268;-83
2024/04/03 04:05:22;;;;;;;;;0.00;0.00;;;;;;;;5010189;28;9279;-84
2024/04/03 04:07:49;;;;;;;;;1.00;1.00;;;;;;;;5016559;28;9201;-88
2024/04/03 04:10:19;;;;;;;;;1.00;1.00;;;;;;;;5010553;28;9321;-89
2024/04/03 04:12:45;;;;;;;;;2.33;1.00;;;;;;;;5010900;28;9444;-89
2024/04/03 04:15:16;;;;;;;;;1.00;1.00;;;;;;;;5009484;28;9458;-89
2024/04/03 04:17:43;;;;;;;;;1.75;1.75;;;;;;;;5003879;28;9267;-88
2024/04/03 04:20:10;;;;;;;;;1.00;1.00;;;;;;;;5010790;28;9396;-84
2024/04/03 04:22:36;;;;;;;;;1.67;1.67;;;;;;;;5010612;28;9473;-83
2024/04/03 04:25:04;;;;;;;;;1.67;1.67;;;;;;;;5011288;28;9459;-82
2024/04/03 04:27:31;;;;;;;;;3.00;1.00;;;;;;;;5012389;28;9434;-83
2024/04/03 04:29:58;;;;;;;;;1.00;1.00;;;;;;;;5000851;28;9501;-85
2024/04/03 04:32:26;;;;;;;;;1.00;1.00;;;;;;;;5010652;28;10156;-84
2024/04/03 04:34:56;;;;;;;;;2.00;2.00;;;;;;;;4998809;28;9356;-84
2024/04/03 04:37:22;;;;;;;;;1.00;1.00;;;;;;;;5010601;28;9374;-84
2024/04/03 04:39:49;;;;;;;;;1.00;1.00;;;;;;;;5009657;28;9281;-85
2024/04/03 04:42:16;;;;;;;;;1.00;1.00;;;;;;;;5000881;28;9443;-84
2024/04/03 04:44:43;;;;;;;;;1.00;1.00;;;;;;;;5005370;28;9521;-84
2024/04/03 04:47:10;;;;;;;;;0.75;0.75;;;;;;;;5002669;28;9344;-84
2024/04/03 04:49:38;;;;;;;;;1.00;1.00;;;;;;;;4998339;28;9535;-82
2024/04/03 04:52:05;;;;;;;;;2.00;2.00;;;;;;;;5010269;28;9572;-83
2024/04/03 04:54:32;;;;;;;;;1.50;1.50;;;;;;;;5009188;28;9762;-82
2024/04/03 04:57:01;;;;;;;;;1.25;1.25;;;;;;;;5007769;28;9559;-83
2024/04/03 04:59:28;;;;;;;;;1.50;1.50;;;;;;;;5010045;28;9756;-83
2024/04/03 05:01:55;;;;;;;;;2.00;2.00;;;;;;;;5009385;28;9514;-84
2024/04/03 05:04:22;;;;;;;;;2.50;1.00;;;;;;;;4998409;28;9551;-83
2024/04/03 05:06:50;;;;;;;;;1.50;1.50;;;;;;;;5002716;28;9589;-81
2024/04/03 05:09:17;;;;;;;;;2.00;2.00;;;;;;;;4998264;28;9544;-82
2024/04/03 05:11:45;;;;;;;;;1.00;1.00;;;;;;;;5009221;28;10627;-83
2024/04/03 05:14:13;;;;;;;;;1.00;1.00;;;;;;;;4998975;28;9541;-83
2024/04/03 05:16:39;;;;;;;;;1.75;1.75;;;;;;;;5007224;28;9706;-75
2024/04/03 05:19:07;;;;;;;;;2.00;2.00;;;;;;;;5008163;28;9670;-75
2024/04/03 05:21:35;;;;;;;;;2.00;2.00;;;;;;;;4996468;28;9707;-74
2024/04/03 05:24:04;;;;;;;;;2.00;2.00;;;;;;;;4990472;28;9851;-75
2024/04/03 05:26:30;;;;;;;;;2.75;2.75;;;;;;;;4992418;28;9914;-74
2024/04/03 05:28:58;;;;;;;;;3.25;3.25;;;;;;;;5009582;28;9867;-74
2024/04/03 05:31:24;;;;;;;;;1.25;1.25;;;;;;;;5008343;28;9860;-75
2024/04/03 05:33:51;;;;;;;;;1.50;1.50;;;;;;;;4993223;28;9706;-75
2024/04/03 05:36:18;;;;;;;;;2.75;2.75;;;;;;;;4997052;28;9688;-75
2024/04/03 05:38:45;;;;;;;;;3.25;2.00;;;;;;;;5009843;28;9773;-75
2024/04/03 05:41:13;;;;;;;;;1.75;1.75;;;;;;;;5010129;28;9622;-76
2024/04/03 05:43:40;;;;;;;;;2.25;1.25;;;;;;;;5009901;28;9813;-75
2024/04/03 05:46:06;;;;;;;;;2.00;2.00;;;;;;;;5006599;28;9545;-75
2024/04/03 05:48:34;;;;;;;;;2.50;2.25;;;;;;;;4991634;28;9782;-75
2024/04/03 05:51:01;;;;;;;;;1.25;1.25;;;;;;;;4997720;28;9727;-75
2024/04/03 05:53:28;;;;;;;;;1.50;1.50;;;;;;;;5008122;28;9572;-75
2024/04/03 05:55:55;;;;;;;;;3.00;3.00;;;;;;;;5007198;28;9681;-75
2024/04/03 05:58:24;;;;;;;;;1.50;1.50;;;;;;;;5008018;28;9713;-73
2024/04/03 06:00:51;;;;;;;;;2.50;2.50;;;;;;;;5001177;28;9726;-75
2024/04/03 06:03:19;;;;;;;;;5.00;3.00;;;;;;;;5001265;28;9800;-75
2024/04/03 06:05:45;;;;;;;;;2.00;2.00;;;;;;;;5002067;28;9837;-75
2024/04/03 06:08:12;;;;;;;;;1.50;1.50;;;;;;;;5007526;28;9722;-76
2024/04/03 06:10:39;;;;;;;;;3.00;3.00;;;;;;;;5007608;28;9837;-75
2024/04/03 06:13:06;;;;;;;;;2.00;2.00;;;;;;;;5008741;28;9637;-75
2024/04/03 06:15:34;;;;;;;;;1.00;1.00;;;;;;;;5004496;28;9755;-75
2024/04/03 06:18:02;;;;;;;;;2.00;2.00;;;;;;;;5003726;28;9557;-76
2024/04/03 06:20:28;;;;;;;;;1.00;1.00;;;;;;;;5007376;28;9637;-76
2024/04/03 06:22:56;;;;;;;;;1.00;1.00;;;;;;;;5007188;28;9477;-77
2024/04/03 06:25:22;;;;;;;;;1.00;1.00;;;;;;;;4996238;28;9583;-75
2024/04/03 06:27:52;;;;;;;;;1.00;1.00;;;;;;;;5007080;28;9554;-74
2024/04/03 06:30:19;;;;;;;;;2.00;2.00;;;;;;;;4994628;28;9540;-74
2024/04/03 06:32:47;;;;;;;;;2.00;2.00;;;;;;;;5013718;28;9422;-75
2024/04/03 06:35:17;;;;;;;;;3.00;1.00;;;;;;;;5002088;28;9560;-74
2024/04/03 06:37:45;;;;;;;;;1.25;1.25;;;;;;;;5001729;28;9594;-76
2024/04/03 06:40:14;;;;;;;;;3.00;1.33;;;;;;;;5000837;28;9411;-74
2024/04/03 06:42:42;;;;;;;;;1.00;1.00;;;;;;;;4990913;28;9360;-76
2024/04/03 06:45:08;;;;;;;;;1.00;1.00;;;;;;;;4996855;28;9173;-74
2024/04/03 06:47:36;;;;;;;;;2.67;1.33;;;;;;;;4994843;28;9189;-74
2024/04/03 06:50:07;;;;;;;;;0.67;0.67;;;;;;;;4991258;28;9188;-75
2024/04/03 06:52:35;;;;;;;;;2.33;2.33;;;;;;;;5007282;28;9084;-73
2024/04/03 06:55:01;;;;;;;;;2.00;2.00;;;;;;;;5011000;28;9335;-74
2024/04/03 06:57:31;;;;;;;;;3.00;3.00;;;;;;;;5010246;28;9944;-73
2024/04/03 06:59:58;;;;;;;;;3.00;3.00;;;;;;;;5002272;28;9264;-73
2024/04/03 07:02:25;;;;;;;;;4.33;4.33;;;;;;;;4997440;28;9223;-74
2024/04/03 07:04:51;;;;;;;;;5.00;5.00;;;;;;;;5006382;28;9105;-73
2024/04/03 07:07:20;;;;;;;;;4.00;4.00;;;;;;;;5006142;28;9275;-74
2024/04/03 07:09:47;;;;;;;;;5.33;5.33;;;;;;;;5003090;28;9363;-73
2024/04/03 07:12:16;;;;;;;;;5.00;5.00;;;;;;;;5008151;28;9267;-74
2024/04/03 07:14:47;;;;;;;;;3.00;3.00;;;;;;;;5003650;28;9251;-74
2024/04/03 07:17:17;;;;;;;;;0.00;0.00;;;;;;;;5010832;28;9082;-74
2024/04/03 07:19:46;;;;;;;;;4.33;3.00;;;;;;;;5010345;28;9083;-74
2024/04/03 07:22:19;;;;;;;;;2.00;2.00;;;;;;;;5006040;28;9269;-73
2024/04/03 07:24:47;;;;;;;;;2.33;2.33;;;;;;;;4995825;28;9114;-73
2024/04/03 07:27:14;;;;;;;;;2.00;2.00;;;;;;;;5006780;28;9134;-73
2024/04/03 07:29:44;;;;;;;;;2.00;2.00;;;;;;;;5006849;28;9310;-73
2024/04/03 07:32:11;;;;;;;;;4.67;3.00;;;;;;;;5011013;28;9146;-75
2024/04/03 07:34:38;;;;;;;;;2.00;2.00;;;;;;;;4999045;28;9338;-74
2024/04/03 07:37:05;;;;;;;;;1.00;1.00;;;;;;;;5004244;28;9873;-73
2024/04/03 07:39:31;;;;;;;;;2.00;2.00;;;;;;;;5004734;28;9253;-74
2024/04/03 07:42:00;;;;;;;;;3.00;3.00;;;;;;;;4999575;28;9464;-74
2024/04/03 07:44:26;;;;;;;;;2.67;2.67;;;;;;;;5000051;28;9221;-74
2024/04/03 07:46:53;;;;;;;;;3.67;3.67;;;;;;;;5003531;28;10103;-73
2024/04/03 07:49:19;;;;;;;;;2.00;2.00;;;;;;;;5005798;28;9200;-74
2024/04/03 07:51:48;;;;;;;;;2.00;2.00;;;;;;;;4999992;28;9019;-73
2024/04/03 07:54:17;;;;;;;;;3.00;3.00;;;;;;;;5000191;28;9009;-73
2024/04/03 07:56:45;;;;;;;;;2.00;2.00;;;;;;;;5009227;28;9057;-73
2024/04/03 07:59:12;;;;;;;;;3.67;3.67;;;;;;;;5009485;28;9112;-74
2024/04/03 08:01:39;;;;;;;;;3.00;3.00;;;;;;;;5001900;28;9159;-75
2024/04/03 08:04:06;;;;;;;;;2.00;2.00;;;;;;;;5000832;28;9073;-74
2024/04/03 08:06:33;;;;;;;;;3.67;3.67;;;;;;;;4997439;28;9021;-75
2024/04/03 08:08:59;;;;;;;;;1.00;1.00;;;;;;;;5009387;28;9279;-75
2024/04/03 08:11:27;;;;;;;;;2.00;2.00;;;;;;;;5001339;28;9109;-75
2024/04/03 08:13:53;;;;;;;;;3.00;3.00;;;;;;;;5008023;28;9198;-79
2024/04/03 08:16:21;;;;;;;;;1.00;1.00;;;;;;;;5000661;28;9303;-75
2024/04/03 08:18:49;;;;;;;;;3.00;3.00;;;;;;;;5008111;28;9028;-75
2024/04/03 08:21:16;;;;;;;;;2.00;2.00;;;;;;;;4999414;28;9765;-75
2024/04/03 08:23:42;;;;;;;;;1.00;1.00;;;;;;;;5007708;28;9102;-75
2024/04/03 08:26:10;;;;;;;;;3.00;3.00;;;;;;;;5009153;28;9710;-75
2024/04/03 08:28:40;;;;;;;;;2.00;2.00;;;;;;;;5007144;28;10083;-75
2024/04/03 08:31:11;;;;;;;;;2.00;2.00;;;;;;;;4997893;28;9046;-75
2024/04/03 08:33:39;;;;;;;;;1.00;1.00;;;;;;;;5007110;28;9001;-75
2024/04/03 08:36:07;;;;;;;;;1.50;1.50;;;;;;;;5008853;28;8864;-75
2024/04/03 08:38:36;;;;;;;;;1.00;1.00;;;;;;;;5009083;28;8870;-76
2024/04/03 08:41:06;;;;;;;;;2.00;2.00;;;;;;;;5008897;28;8852;-76
2024/04/03 08:43:34;;;;;;;;;1.00;1.00;;;;;;;;5008655;28;8888;-75
2024/04/03 08:46:02;;;;;;;;;1.00;1.00;;;;;;;;5009059;28;8961;-75
2024/04/03 08:48:31;;;;;;;;;1.75;1.75;;;;;;;;5002846;28;8991;-75
2024/04/03 08:50:59;;;;;;;;;2.00;2.00;;;;;;;;4994453;28;8824;-75
2024/04/03 08:53:25;;;;;;;;;1.00;1.00;;;;;;;;4998376;28;8945;-75
2024/04/03 08:55:54;;;;;;;;;1.25;1.25;;;;;;;;5007168;28;8895;-75
2024/04/03 08:58:21;;;;;;;;;1.25;1.25;;;;;;;;4992066;28;8863;-77
2024/04/03 09:00:51;;;;;;;;;0.00;0.00;;;;;;;;5006400;28;8804;-76
2024/04/03 09:03:19;;;;;;;;;2.75;1.25;;;;;;;;5009731;28;8890;-76
2024/04/03 09:05:46;;;;;;;;;1.25;1.00;;;;;;;;5003835;28;8875;-75
2024/04/03 09:08:17;;;;;;;;;0.75;0.00;;;;;;;;5000905;28;8867;-76
2024/04/03 09:10:47;;;;;;;;;1.75;1.00;;;;;;;;5009270;28;8940;-76
2024/04/03 09:13:16;;;;;;;;;1.00;1.00;;;;;;;;5010649;28;8873;-76
2024/04/03 09:15:44;;;;;;;;;1.00;1.00;;;;;;;;4993960;28;8925;-74
2024/04/03 09:18:10;;;;;;;;;1.00;1.00;;;;;;;;5007089;28;8864;-76
2024/04/03 09:20:42;;;;;;;;;1.75;1.00;;;;;;;;5004096;28;8875;-76
2024/04/03 09:23:09;;;;;;;;;2.25;2.00;;;;;;;;4990456;28;8856;-76
2024/04/03 09:25:39;;;;;;;;;1.00;1.00;;;;;;;;4996473;28;8947;-76
2024/04/03 09:28:09;;;;;;;;;0.00;0.00;;;;;;;;5007807;28;8880;-76
2024/04/03 09:30:43;;;;;;;;;1.50;1.00;;;;;;;;5008117;28;8773;-76
2024/04/03 09:33:10;;;;;;;;;1.00;1.00;;;;;;;;5007863;28;8863;-76
2024/04/03 09:35:40;;;;;;;;;0.00;0.00;;;;;;;;5007710;28;8840;-76
2024/04/03 09:38:06;;;;;;;;;1.50;0.00;;;;;;;;5004982;28;8997;-76
2024/04/03 09:40:35;;;;;;;;;2.00;1.00;;;;;;;;4999799;28;8880;-76
2024/04/03 09:43:05;;;;;;;;;0.00;0.00;;;;;;;;5007976;28;10087;-76
2024/04/03 09:45:36;;;;;;;;;0.00;0.00;;;;;;;;5008339;28;8848;-76
2024/04/03 09:48:04;;;;;;;;;0.00;0.00;;;;;;;;5008858;28;8880;-75
2024/04/03 09:50:39;;;;;;;;;0.50;0.50;;;;;;;;5009452;28;8869;-74
2024/04/03 09:53:07;;;;;;;;;0.00;0.00;;;;;;;;5009249;28;9627;-75
2024/04/03 09:55:35;;;;;;;;;0.25;0.25;;;;;;;;5008407;28;8890;-75
2024/04/03 09:58:05;;;;;;;;;1.50;1.00;;;;;;;;4991307;28;8858;-75
2024/04/03 10:00:34;;;;;;;;;1.00;1.00;;;;;;;;4991408;28;8779;-75
2024/04/03 10:03:02;;;;;;;;;2.00;0.75;;;;;;;;5003783;28;8979;-75
2024/04/03 10:05:45;;;;;;;;;1.00;1.00;;;;;;;;5001311;28;8844;-74
2024/04/03 10:08:12;;;;;;;;;1.00;1.00;;;;;;;;5010203;28;8943;-74
2024/04/03 10:10:45;;;;;;;;;1.00;1.00;;;;;;;;4999428;28;9003;-74
2024/04/03 10:13:19;;;;;;;;;1.00;1.00;;;;;;;;5010824;28;8894;-76
2024/04/03 10:16:01;;;;;;;;;1.00;1.00;;;;;;;;5006491;28;8887;-76
2024/04/03 10:18:27;;;;;;;;;1.75;1.00;;;;;;;;5006739;28;8975;-75
2024/04/03 10:20:57;;;;;;;;;1.75;0.75;;;;;;;;4992996;28;8878;-75
2024/04/03 10:23:24;;;;;;;;;1.25;1.25;;;;;;;;5003388;28;8860;-75
2024/04/03 10:25:52;;;;;;;;;2.25;1.00;;;;;;;;5003198;28;8866;-74
2024/04/03 10:28:20;;;;;;;;;2.00;0.00;;;;;;;;4995137;28;8872;-75
2024/04/03 10:30:55;;;;;;;;;3.50;1.00;;;;;;;;5010699;28;8785;-76
2024/04/03 10:33:21;;;;;;;;;0.00;0.00;;;;;;;;5010662;28;8861;-75
2024/04/03 10:35:49;;;;;;;;;2.50;1.00;;;;;;;;5011103;28;8849;-76
2024/04/03 10:38:15;;;;;;;;;2.00;1.00;;;;;;;;5007231;28;8851;-73
2024/04/03 10:40:42;;;;;;;;;1.00;1.00;;;;;;;;4993528;28;8905;-73
2024/04/03 10:43:09;;;;;;;;;2.25;1.25;;;;;;;;4997686;28;8868;-74
2024/04/03 10:45:37;;;;;;;;;0.50;0.00;;;;;;;;5011298;28;8848;-74
2024/04/03 10:48:08;;;;;;;;;3.00;0.50;;;;;;;;5007217;28;8883;-74
2024/04/03 10:50:36;;;;;;;;;1.00;1.00;;;;;;;;4996922;28;8870;-73
2024/04/03 10:53:05;;;;;;;;;1.00;1.00;;;;;;;;4996326;28;8873;-74
2024/04/03 10:55:34;;;;;;;;;3.00;1.00;;;;;;;;4995633;28;8867;-74
2024/04/03 10:58:01;;;;;;;;;1.00;1.00;;;;;;;;5007103;28;8989;-77
2024/04/03 11:00:33;;;;;;;;;1.00;1.00;;;;;;;;4995216;28;8803;-74
2024/04/03 11:03:02;;;;;;;;;4.00;1.75;;;;;;;;5012771;28;8870;-73
2024/04/03 11:05:29;;;;;;;;;0.00;0.00;;;;;;;;5005801;28;8855;-73
2024/04/03 11:07:57;;;;;;;;;2.25;1.00;;;;;;;;4997006;28;8875;-74
2024/04/03 11:10:25;;;;;;;;;1.00;1.00;;;;;;;;5007279;28;8884;-74
2024/04/03 11:13:02;;;;;;;;;1.00;1.00;;;;;;;;5010848;28;8874;-75
2024/04/03 11:15:29;;;;;;;;;0.25;0.25;;;;;;;;5000815;28;8890;-75
2024/04/03 11:17:56;;;;;;;;;1.25;1.25;;;;;;;;5012272;28;8856;-76
2024/04/03 11:20:26;;;;;;;;;1.50;1.50;;;;;;;;4998534;28;8934;-75
2024/04/03 11:22:55;;;;;;;;;1.25;1.00;;;;;;;;5010444;28;8856;-76
2024/04/03 11:25:23;;;;;;;;;2.25;2.00;;;;;;;;5009688;28;8871;-74
2024/04/03 11:27:49;;;;;;;;;2.50;1.25;;;;;;;;5010250;28;8891;-76
2024/04/03 11:30:17;;;;;;;;;1.00;1.00;;;;;;;;5008758;28;8853;-74
2024/04/03 11:32:43;;;;;;;;;1.00;1.00;;;;;;;;5010149;28;8930;-74
2024/04/03 11:35:15;;;;;;;;;3.25;1.50;;;;;;;;4997886;28;8848;-74
2024/04/03 11:37:42;;;;;;;;;0.75;0.75;;;;;;;;5010280;28;8887;-75
2024/04/03 11:40:11;;;;;;;;;3.50;2.00;;;;;;;;4995191;28;8967;-76
2024/04/03 11:42:40;;;;;;;;;1.00;1.00;;;;;;;;5006250;28;8868;-75
2024/04/03 11:45:08;;;;;;;;;3.75;2.00;;;;;;;;4993326;28;9640;-75
2024/04/03 11:47:34;;;;;;;;;1.25;1.25;;;;;;;;4994321;28;9673;-74
2024/04/03 11:50:03;;;;;;;;;2.00;2.00;;;;;;;;5002933;28;8895;-73
2024/04/03 11:52:31;;;;;;;;;2.75;1.75;;;;;;;;5004916;28;8954;-74
2024/04/03 11:55:02;;;;;;;;;2.50;1.00;;;;;;;;4992410;28;8981;-74
2024/04/03 11:57:31;;;;;;;;;2.50;1.00;;;;;;;;4994504;28;9023;-74
2024/04/03 12:00:00;;;;;;;;;3.00;1.50;;;;;;;;5009602;28;8868;-73
2024/04/03 12:02:27;;;;;;;;;0.75;0.75;;;;;;;;5009136;28;8801;-73
2024/04/03 12:04:54;;;;;;;;;2.00;1.00;;;;;;;;5004596;28;8828;-73
2024/04/03 12:07:20;;;;;;;;;1.50;1.00;;;;;;;;4999181;28;8852;-73
2024/04/03 12:09:47;;;;;;;;;3.00;1.50;;;;;;;;5009082;28;8852;-72
2024/04/03 12:12:15;;;;;;;;;2.00;1.00;;;;;;;;4995782;28;8881;-74
2024/04/03 12:14:47;;;;;;;;;1.75;1.00;;;;;;;;5001664;28;8864;-73
2024/04/03 12:17:23;;;;;;;;;2.00;0.25;;;;;;;;5008406;28;8848;-74
2024/04/03 12:20:04;;;;;;;;;1.25;1.00;;;;;;;;5009052;28;9694;-76
2024/04/03 12:22:31;;;;;;;;;1.25;0.75;;;;;;;;5009312;28;8868;-75
2024/04/03 12:24:58;;;;;;;;;1.00;1.00;;;;;;;;5008225;28;8875;-74
2024/04/03 12:27:27;;;;;;;;;2.75;0.75;;;;;;;;4998822;28;8883;-74
2024/04/03 12:29:55;;;;;;;;;1.75;1.00;;;;;;;;4996878;28;8861;-73
2024/04/03 12:32:21;;;;;;;;;0.00;0.00;;;;;;;;5008856;28;8812;-75
2024/04/03 12:34:48;;;;;;;;;1.00;1.00;;;;;;;;4997018;28;8844;-73
2024/04/03 12:37:15;;;;;;;;;1.75;1.00;;;;;;;;5009637;28;8851;-74
2024/04/03 12:39:42;;;;;;;;;1.00;1.00;;;;;;;;4996599;28;8860;-76
2024/04/03 12:42:14;;;;;;;;;0.80;0.80;;;;;;;;5001860;28;8853;-76
2024/04/03 12:44:49;;;;;;;;;4.00;1.00;;;;;;;;4998967;28;8872;-74
2024/04/03 12:47:15;;;;;;;;;1.00;1.00;;;;;;;;5000633;28;8913;-74
2024/04/03 12:49:42;;;;;;;;;1.00;1.00;;;;;;;;5010264;28;8856;-72
2024/04/03 12:52:08;;;;;;;;;2.20;1.00;;;;;;;;5011419;28;8900;-70
2024/04/03 12:54:37;;;;;;;;;2.00;0.40;;;;;;;;5010921;28;8868;-73
2024/04/03 12:57:03;;;;;;;;;0.60;0.60;;;;;;;;5010339;28;8864;-75
2024/04/03 12:59:31;;;;;;;;;1.00;1.00;;;;;;;;4997190;28;8953;-73
2024/04/03 13:01:59;;;;;;;;;1.00;1.00;;;;;;;;5009795;28;8882;-74
2024/04/03 13:04:26;;;;;;;;;2.25;1.00;;;;;;;;5009971;28;8883;-76
2024/04/03 13:06:52;;;;;;;;;4.00;1.00;;;;;;;;4992587;28;8874;-77
2024/04/03 13:09:22;;;;;;;;;1.25;0.00;;;;;;;;4997969;28;8857;-78
2024/04/03 13:11:48;;;;;;;;;1.00;1.00;;;;;;;;5007980;28;8874;-75
2024/04/03 13:14:18;;;;;;;;;0.00;0.00;;;;;;;;4999332;28;8848;-76
2024/04/03 13:16:49;;;;;;;;;2.00;1.00;;;;;;;;5008037;28;8886;-72
2024/04/03 13:19:18;;;;;;;;;0.50;0.00;;;;;;;;5006744;28;8865;-74
2024/04/03 13:21:44;;;;;;;;;0.00;0.00;;;;;;;;5008042;28;8966;-73
2024/04/03 13:24:14;;;;;;;;;2.00;0.25;;;;;;;;5008640;28;8875;-75
2024/04/03 13:26:42;;;;;;;;;0.00;0.00;;;;;;;;5008041;28;8881;-75
2024/04/03 13:29:09;;;;;;;;;1.00;1.00;;;;;;;;5002285;28;8864;-75
2024/04/03 13:31:35;;;;;;;;;1.25;1.25;;;;;;;;5000881;28;8804;-74
2024/04/03 13:34:03;;;;;;;;;0.00;0.00;;;;;;;;5007247;28;8856;-72
2024/04/03 13:36:31;;;;;;;;;0.00;0.00;;;;;;;;5000532;28;8857;-74
2024/04/03 13:39:03;;;;;;;;;0.00;0.00;;;;;;;;5007787;28;8876;-73
2024/04/03 13:41:29;;;;;;;;;0.00;0.00;;;;;;;;5008004;28;8992;-73
2024/04/03 13:43:56;;;;;;;;;0.00;0.00;;;;;;;;4994816;28;8973;-73
2024/04/03 13:46:23;;;;;;;;;0.00;0.00;;;;;;;;4999739;28;8942;-75
2024/04/03 13:48:50;;;;;;;;;0.50;0.50;;;;;;;;5000778;28;9284;-75
2024/04/03 13:51:16;;;;;;;;;0.00;0.00;;;;;;;;5007744;28;8914;-75
2024/04/03 13:53:46;;;;;;;;;0.00;0.00;;;;;;;;5007463;28;8899;-74
2024/04/03 13:56:15;;;;;;;;;0.00;0.00;;;;;;;;5007739;28;8852;-76
2024/04/03 13:58:45;;;;;;;;;0.00;0.00;;;;;;;;4995054;28;8870;-75
2024/04/03 14:01:11;;;;;;;;;0.25;0.00;;;;;;;;5006168;28;8817;-76
2024/04/03 14:03:39;;;;;;;;;0.00;0.00;;;;;;;;4995862;28;8903;-76
2024/04/03 14:06:05;;;;;;;;;0.00;0.00;;;;;;;;5002453;28;8861;-74
2024/04/03 14:08:35;;;;;;;;;1.00;1.00;;;;;;;;5001829;28;8859;-74
2024/04/03 14:11:04;;;;;;;;;0.50;0.50;;;;;;;;5006670;28;8914;-73
2024/04/03 14:13:31;;;;;;;;;0.00;0.00;;;;;;;;4999089;28;8856;-75
2024/04/03 14:15:57;;;;;;;;;0.00;0.00;;;;;;;;5002771;28;9493;-74
2024/04/03 14:18:24;;;;;;;;;0.00;0.00;;;;;;;;5006603;28;8875;-77
2024/04/03 14:20:50;;;;;;;;;0.00;0.00;;;;;;;;4989062;28;8855;-73
2024/04/03 14:23:20;;;;;;;;;0.25;0.25;;;;;;;;4991054;28;9649;-73
2024/04/03 14:25:50;;;;;;;;;0.75;0.00;;;;;;;;5000376;28;8883;-74
2024/04/03 14:28:19;;;;;;;;;0.25;0.25;;;;;;;;4992286;28;8848;-73
2024/04/03 14:30:45;;;;;;;;;0.00;0.00;;;;;;;;5008542;28;8788;-76
2024/04/03 14:33:13;;;;;;;;;0.75;0.00;;;;;;;;5006071;28;8833;-74
2024/04/03 14:35:41;;;;;;;;;0.00;0.00;;;;;;;;4999796;28;8987;-75
2024/04/03 14:38:08;;;;;;;;;0.00;0.00;;;;;;;;4996927;28;8884;-72
2024/04/03 14:40:34;;;;;;;;;0.00;0.00;;;;;;;;5009614;28;8861;-73
2024/04/03 14:43:05;;;;;;;;;0.00;0.00;;;;;;;;5008664;28;8852;-74
2024/04/03 14:45:34;;;;;;;;;0.00;0.00;;;;;;;;5007841;28;8853;-75
2024/04/03 14:48:04;;;;;;;;;0.00;0.00;;;;;;;;5007414;28;9635;-74
2024/04/03 14:50:30;;;;;;;;;0.00;0.00;;;;;;;;5008567;28;8860;-73
2024/04/03 14:52:57;;;;;;;;;0.00;0.00;;;;;;;;5007177;28;8902;-73
2024/04/03 14:55:28;;;;;;;;;0.00;0.00;;;;;;;;5007795;28;8841;-74
2024/04/03 14:57:55;;;;;;;;;0.00;0.00;;;;;;;;5006823;28;8852;-74
2024/04/03 15:00:24;;;;;;;;;0.00;0.00;;;;;;;;5006531;28;8994;-75
2024/04/03 15:02:53;;;;;;;;;0.00;0.00;;;;;;;;4990113;28;8866;-77